sensor_id;sensor_type;location;lat;lon;timestamp;P1;durP1;ratioP1;P2;durP2;ratioP2
1563;SDS011;775;51.958;7.976;2024-03-17T00:02:08;17.70;;;3.80;;
1563;SDS011;775;51.958;7.976;2024-03-17T00:04:55;21.50;;;4.57;;
1563;SDS011;775;51.958;7.976;2024-03-17T00:07:42;16.30;;;3.57;;
1563;SDS011;775;51.958;7.976;2024-03-17T00:10:29;19.60;;;3.63;;
1563;SDS011;775;51.958;7.976;2024-03-17T00:13:16;19.80;;;3.77;;
1563;SDS011;775;51.958;7.976;2024-03-17T00:16:05;22.20;;;4.10;;
1563;SDS011;775;51.958;7.976;2024-03-17T00:18:52;18.67;;;4.00;;
1563;SDS011;775;51.958;7.976;2024-03-17T00:21:41;20.00;;;4.37;;
1563;SDS011;775;51.958;7.976;2024-03-17T00:24:27;17.10;;;3.57;;
1563;SDS011;775;51.958;7.976;2024-03-17T00:27:20;18.33;;;4.10;;
1563;SDS011;775;51.958;7.976;2024-03-17T00:30:07;19.23;;;4.30;;
1563;SDS011;775;51.958;7.976;2024-03-17T00:32:59;22.10;;;4.40;;
1563;SDS011;775;51.958;7.976;2024-03-17T00:35:46;19.73;;;5.07;;
1563;SDS011;775;51.958;7.976;2024-03-17T00:38:33;20.73;;;4.50;;
1563;SDS011;775;51.958;7.976;2024-03-17T00:41:19;17.50;;;4.07;;
1563;SDS011;775;51.958;7.976;2024-03-17T00:44:07;17.97;;;5.10;;
1563;SDS011;775;51.958;7.976;2024-03-17T00:46:55;18.37;;;4.33;;
1563;SDS011;775;51.958;7.976;2024-03-17T00:49:43;18.50;;;4.93;;
1563;SDS011;775;51.958;7.976;2024-03-17T00:52:30;18.93;;;4.27;;
1563;SDS011;775;51.958;7.976;2024-03-17T00:55:17;19.03;;;4.00;;
1563;SDS011;775;51.958;7.976;2024-03-17T00:58:04;24.40;;;4.40;;
1563;SDS011;775;51.958;7.976;2024-03-17T01:00:52;17.80;;;4.40;;
1563;SDS011;775;51.958;7.976;2024-03-17T01:03:39;18.60;;;4.73;;
1563;SDS011;775;51.958;7.976;2024-03-17T01:06:28;19.67;;;4.33;;
1563;SDS011;775;51.958;7.976;2024-03-17T01:09:14;20.50;;;5.00;;
1563;SDS011;775;51.958;7.976;2024-03-17T01:12:02;21.00;;;4.90;;
1563;SDS011;775;51.958;7.976;2024-03-17T01:14:49;18.63;;;4.90;;
1563;SDS011;775;51.958;7.976;2024-03-17T01:17:36;21.53;;;4.63;;
1563;SDS011;775;51.958;7.976;2024-03-17T01:20:23;23.07;;;4.70;;
1563;SDS011;775;51.958;7.976;2024-03-17T01:23:11;20.87;;;5.00;;
1563;SDS011;775;51.958;7.976;2024-03-17T01:25:59;19.23;;;4.57;;
1563;SDS011;775;51.958;7.976;2024-03-17T01:28:46;18.83;;;4.57;;
1563;SDS011;775;51.958;7.976;2024-03-17T01:31:33;19.63;;;4.10;;
1563;SDS011;775;51.958;7.976;2024-03-17T01:34:20;20.97;;;4.93;;
1563;SDS011;775;51.958;7.976;2024-03-17T01:37:08;17.60;;;4.60;;
1563;SDS011;775;51.958;7.976;2024-03-17T01:39:56;19.07;;;4.60;;
1563;SDS011;775;51.958;7.976;2024-03-17T01:42:43;18.13;;;4.70;;
1563;SDS011;775;51.958;7.976;2024-03-17T01:45:30;20.57;;;4.50;;
1563;SDS011;775;51.958;7.976;2024-03-17T01:48:18;17.50;;;4.03;;
1563;SDS011;775;51.958;7.976;2024-03-17T01:51:04;21.13;;;4.57;;
1563;SDS011;775;51.958;7.976;2024-03-17T01:53:52;18.80;;;3.97;;
1563;SDS011;775;51.958;7.976;2024-03-17T01:56:42;19.33;;;4.80;;
1563;SDS011;775;51.958;7.976;2024-03-17T01:59:29;18.70;;;4.60;;
1563;SDS011;775;51.958;7.976;2024-03-17T02:02:16;22.63;;;5.60;;
1563;SDS011;775;51.958;7.976;2024-03-17T02:05:03;20.03;;;5.30;;
1563;SDS011;775;51.958;7.976;2024-03-17T02:07:51;21.73;;;5.53;;
1563;SDS011;775;51.958;7.976;2024-03-17T02:10:37;17.70;;;4.57;;
1563;SDS011;775;51.958;7.976;2024-03-17T02:13:26;19.60;;;5.50;;
1563;SDS011;775;51.958;7.976;2024-03-17T02:16:13;18.40;;;4.90;;
1563;SDS011;775;51.958;7.976;2024-03-17T02:19:00;21.57;;;5.90;;
1563;SDS011;775;51.958;7.976;2024-03-17T02:21:47;19.50;;;5.67;;
1563;SDS011;775;51.958;7.976;2024-03-17T02:24:35;21.27;;;5.23;;
1563;SDS011;775;51.958;7.976;2024-03-17T02:27:23;20.47;;;5.10;;
1563;SDS011;775;51.958;7.976;2024-03-17T02:30:09;19.17;;;5.20;;
1563;SDS011;775;51.958;7.976;2024-03-17T02:32:57;20.00;;;5.50;;
1563;SDS011;775;51.958;7.976;2024-03-17T02:35:43;19.30;;;5.40;;
1563;SDS011;775;51.958;7.976;2024-03-17T02:38:31;19.20;;;5.00;;
1563;SDS011;775;51.958;7.976;2024-03-17T02:41:41;17.27;;;4.53;;
1563;SDS011;775;51.958;7.976;2024-03-17T02:44:29;23.27;;;5.03;;
1563;SDS011;775;51.958;7.976;2024-03-17T02:47:17;18.40;;;4.47;;
1563;SDS011;775;51.958;7.976;2024-03-17T02:50:05;18.47;;;4.67;;
1563;SDS011;775;51.958;7.976;2024-03-17T02:52:53;16.80;;;4.37;;
1563;SDS011;775;51.958;7.976;2024-03-17T02:55:40;18.57;;;4.53;;
1563;SDS011;775;51.958;7.976;2024-03-17T02:58:29;19.50;;;5.23;;
1563;SDS011;775;51.958;7.976;2024-03-17T03:01:16;19.70;;;4.93;;
1563;SDS011;775;51.958;7.976;2024-03-17T03:04:04;21.53;;;4.73;;
1563;SDS011;775;51.958;7.976;2024-03-17T03:06:52;18.37;;;4.20;;
1563;SDS011;775;51.958;7.976;2024-03-17T03:09:39;16.97;;;4.00;;
1563;SDS011;775;51.958;7.976;2024-03-17T03:12:27;18.30;;;4.60;;
1563;SDS011;775;51.958;7.976;2024-03-17T03:15:16;18.37;;;4.13;;
1563;SDS011;775;51.958;7.976;2024-03-17T03:18:05;19.20;;;4.27;;
1563;SDS011;775;51.958;7.976;2024-03-17T03:20:52;20.23;;;4.47;;
1563;SDS011;775;51.958;7.976;2024-03-17T03:23:41;19.60;;;3.80;;
1563;SDS011;775;51.958;7.976;2024-03-17T03:26:28;20.97;;;4.63;;
1563;SDS011;775;51.958;7.976;2024-03-17T03:29:16;18.80;;;4.13;;
1563;SDS011;775;51.958;7.976;2024-03-17T03:32:05;21.17;;;3.80;;
1563;SDS011;775;51.958;7.976;2024-03-17T03:34:53;21.67;;;4.47;;
1563;SDS011;775;51.958;7.976;2024-03-17T03:37:40;19.43;;;4.63;;
1563;SDS011;775;51.958;7.976;2024-03-17T03:40:28;19.73;;;4.97;;
1563;SDS011;775;51.958;7.976;2024-03-17T03:43:15;16.83;;;4.13;;
1563;SDS011;775;51.958;7.976;2024-03-17T03:46:03;19.30;;;4.00;;
1563;SDS011;775;51.958;7.976;2024-03-17T03:48:52;21.13;;;4.93;;
1563;SDS011;775;51.958;7.976;2024-03-17T03:51:40;19.17;;;3.97;;
1563;SDS011;775;51.958;7.976;2024-03-17T03:54:27;19.43;;;4.23;;
1563;SDS011;775;51.958;7.976;2024-03-17T03:57:14;17.67;;;4.33;;
1563;SDS011;775;51.958;7.976;2024-03-17T04:00:02;20.77;;;4.30;;
1563;SDS011;775;51.958;7.976;2024-03-17T04:02:51;17.90;;;4.50;;
1563;SDS011;775;51.958;7.976;2024-03-17T04:05:40;18.13;;;4.27;;
1563;SDS011;775;51.958;7.976;2024-03-17T04:08:28;19.53;;;4.13;;
1563;SDS011;775;51.958;7.976;2024-03-17T04:11:15;19.37;;;4.33;;
1563;SDS011;775;51.958;7.976;2024-03-17T04:14:03;16.53;;;3.80;;
1563;SDS011;775;51.958;7.976;2024-03-17T04:16:51;18.70;;;4.40;;
1563;SDS011;775;51.958;7.976;2024-03-17T04:19:38;17.03;;;4.17;;
1563;SDS011;775;51.958;7.976;2024-03-17T04:22:27;16.13;;;3.80;;
1563;SDS011;775;51.958;7.976;2024-03-17T04:25:15;16.50;;;3.37;;
1563;SDS011;775;51.958;7.976;2024-03-17T04:28:04;21.13;;;4.17;;
1563;SDS011;775;51.958;7.976;2024-03-17T04:30:51;16.90;;;3.70;;
1563;SDS011;775;51.958;7.976;2024-03-17T04:33:39;18.90;;;3.83;;
1563;SDS011;775;51.958;7.976;2024-03-17T04:36:26;17.10;;;3.70;;
1563;SDS011;775;51.958;7.976;2024-03-17T04:39:15;19.07;;;3.73;;
1563;SDS011;775;51.958;7.976;2024-03-17T04:42:03;18.33;;;3.80;;
1563;SDS011;775;51.958;7.976;2024-03-17T04:44:51;17.63;;;4.00;;
1563;SDS011;775;51.958;7.976;2024-03-17T04:47:39;16.50;;;3.50;;
1563;SDS011;775;51.958;7.976;2024-03-17T04:50:26;16.80;;;3.87;;
1563;SDS011;775;51.958;7.976;2024-03-17T04:53:17;16.80;;;3.67;;
1563;SDS011;775;51.958;7.976;2024-03-17T04:56:06;17.13;;;3.57;;
1563;SDS011;775;51.958;7.976;2024-03-17T04:58:54;20.00;;;3.90;;
1563;SDS011;775;51.958;7.976;2024-03-17T05:01:41;19.43;;;3.50;;
1563;SDS011;775;51.958;7.976;2024-03-17T05:04:29;18.10;;;3.80;;
1563;SDS011;775;51.958;7.976;2024-03-17T05:07:16;18.10;;;3.90;;
1563;SDS011;775;51.958;7.976;2024-03-17T05:10:04;18.27;;;4.50;;
1563;SDS011;775;51.958;7.976;2024-03-17T05:12:53;16.60;;;3.60;;
1563;SDS011;775;51.958;7.976;2024-03-17T05:15:41;20.80;;;4.30;;
1563;SDS011;775;51.958;7.976;2024-03-17T05:18:29;18.87;;;3.23;;
1563;SDS011;775;51.958;7.976;2024-03-17T05:21:18;19.13;;;3.87;;
1563;SDS011;775;51.958;7.976;2024-03-17T05:24:05;17.37;;;3.80;;
1563;SDS011;775;51.958;7.976;2024-03-17T05:26:53;16.73;;;3.47;;
1563;SDS011;775;51.958;7.976;2024-03-17T05:29:42;17.93;;;4.00;;
1563;SDS011;775;51.958;7.976;2024-03-17T05:32:29;17.00;;;4.03;;
1563;SDS011;775;51.958;7.976;2024-03-17T05:35:17;17.03;;;3.93;;
1563;SDS011;775;51.958;7.976;2024-03-17T05:38:04;18.83;;;4.47;;
1563;SDS011;775;51.958;7.976;2024-03-17T05:40:55;17.83;;;3.67;;
1563;SDS011;775;51.958;7.976;2024-03-17T05:43:43;19.10;;;3.83;;
1563;SDS011;775;51.958;7.976;2024-03-17T05:46:35;17.23;;;3.87;;
1563;SDS011;775;51.958;7.976;2024-03-17T05:49:23;16.90;;;4.07;;
1563;SDS011;775;51.958;7.976;2024-03-17T05:52:10;20.00;;;3.87;;
1563;SDS011;775;51.958;7.976;2024-03-17T05:54:58;18.20;;;4.67;;
1563;SDS011;775;51.958;7.976;2024-03-17T05:57:45;18.70;;;4.27;;
1563;SDS011;775;51.958;7.976;2024-03-17T06:00:33;17.90;;;4.00;;
1563;SDS011;775;51.958;7.976;2024-03-17T06:03:22;18.33;;;4.60;;
1563;SDS011;775;51.958;7.976;2024-03-17T06:06:10;17.87;;;4.60;;
1563;SDS011;775;51.958;7.976;2024-03-17T06:08:57;20.40;;;4.50;;
1563;SDS011;775;51.958;7.976;2024-03-17T06:11:45;18.10;;;4.00;;
1563;SDS011;775;51.958;7.976;2024-03-17T06:14:33;18.90;;;4.57;;
1563;SDS011;775;51.958;7.976;2024-03-17T06:17:20;19.00;;;5.13;;
1563;SDS011;775;51.958;7.976;2024-03-17T06:20:10;17.10;;;4.13;;
1563;SDS011;775;51.958;7.976;2024-03-17T06:22:59;18.83;;;4.90;;
1563;SDS011;775;51.958;7.976;2024-03-17T06:25:47;18.80;;;4.67;;
1563;SDS011;775;51.958;7.976;2024-03-17T06:28:36;19.50;;;4.43;;
1563;SDS011;775;51.958;7.976;2024-03-17T06:31:23;17.30;;;4.20;;
1563;SDS011;775;51.958;7.976;2024-03-17T06:34:11;17.83;;;4.37;;
1563;SDS011;775;51.958;7.976;2024-03-17T06:37:01;18.40;;;4.60;;
1563;SDS011;775;51.958;7.976;2024-03-17T06:39:49;19.10;;;5.10;;
1563;SDS011;775;51.958;7.976;2024-03-17T06:42:36;17.20;;;3.93;;
1563;SDS011;775;51.958;7.976;2024-03-17T06:45:24;19.67;;;4.30;;
1563;SDS011;775;51.958;7.976;2024-03-17T06:48:11;17.30;;;5.23;;
1563;SDS011;775;51.958;7.976;2024-03-17T06:50:59;20.60;;;5.23;;
1563;SDS011;775;51.958;7.976;2024-03-17T06:53:48;17.70;;;4.50;;
1563;SDS011;775;51.958;7.976;2024-03-17T06:56:35;21.10;;;5.23;;
1563;SDS011;775;51.958;7.976;2024-03-17T06:59:23;18.40;;;4.80;;
1563;SDS011;775;51.958;7.976;2024-03-17T07:02:10;20.70;;;5.67;;
1563;SDS011;775;51.958;7.976;2024-03-17T07:05:01;19.60;;;5.33;;
1563;SDS011;775;51.958;7.976;2024-03-17T07:07:48;18.87;;;5.30;;
1563;SDS011;775;51.958;7.976;2024-03-17T07:10:38;23.13;;;6.80;;
1563;SDS011;775;51.958;7.976;2024-03-17T07:13:26;19.57;;;5.77;;
1563;SDS011;775;51.958;7.976;2024-03-17T07:16:15;19.93;;;5.50;;
1563;SDS011;775;51.958;7.976;2024-03-17T07:19:03;19.63;;;5.60;;
1563;SDS011;775;51.958;7.976;2024-03-17T07:21:51;19.93;;;6.00;;
1563;SDS011;775;51.958;7.976;2024-03-17T07:24:39;21.97;;;6.23;;
1563;SDS011;775;51.958;7.976;2024-03-17T07:27:31;20.03;;;5.40;;
1563;SDS011;775;51.958;7.976;2024-03-17T07:30:19;20.47;;;5.53;;
1563;SDS011;775;51.958;7.976;2024-03-17T07:33:07;19.27;;;5.57;;
1563;SDS011;775;51.958;7.976;2024-03-17T07:35:55;21.47;;;6.00;;
1563;SDS011;775;51.958;7.976;2024-03-17T07:38:45;22.63;;;6.57;;
1563;SDS011;775;51.958;7.976;2024-03-17T07:41:32;21.27;;;6.67;;
1563;SDS011;775;51.958;7.976;2024-03-17T07:44:21;22.20;;;6.27;;
1563;SDS011;775;51.958;7.976;2024-03-17T07:47:09;20.03;;;5.87;;
1563;SDS011;775;51.958;7.976;2024-03-17T07:49:56;22.83;;;7.67;;
1563;SDS011;775;51.958;7.976;2024-03-17T07:52:49;21.00;;;6.20;;
1563;SDS011;775;51.958;7.976;2024-03-17T07:55:36;23.60;;;5.63;;
1563;SDS011;775;51.958;7.976;2024-03-17T07:58:24;20.30;;;6.30;;
1563;SDS011;775;51.958;7.976;2024-03-17T08:01:13;23.80;;;6.40;;
1563;SDS011;775;51.958;7.976;2024-03-17T08:04:01;19.87;;;5.57;;
1563;SDS011;775;51.958;7.976;2024-03-17T08:06:49;20.47;;;7.13;;
1563;SDS011;775;51.958;7.976;2024-03-17T08:09:36;20.97;;;6.63;;
1563;SDS011;775;51.958;7.976;2024-03-17T08:12:24;20.87;;;6.80;;
1563;SDS011;775;51.958;7.976;2024-03-17T08:15:11;21.20;;;6.50;;
1563;SDS011;775;51.958;7.976;2024-03-17T08:18:01;19.10;;;6.10;;
1563;SDS011;775;51.958;7.976;2024-03-17T08:20:49;22.30;;;6.40;;
1563;SDS011;775;51.958;7.976;2024-03-17T08:23:36;21.43;;;6.07;;
1563;SDS011;775;51.958;7.976;2024-03-17T08:26:27;19.37;;;6.77;;
1563;SDS011;775;51.958;7.976;2024-03-17T08:29:14;21.90;;;8.17;;
1563;SDS011;775;51.958;7.976;2024-03-17T08:32:02;19.53;;;6.63;;
1563;SDS011;775;51.958;7.976;2024-03-17T08:34:50;22.27;;;6.77;;
1563;SDS011;775;51.958;7.976;2024-03-17T08:37:38;22.23;;;7.30;;
1563;SDS011;775;51.958;7.976;2024-03-17T08:40:25;19.90;;;6.53;;
1563;SDS011;775;51.958;7.976;2024-03-17T08:43:13;20.60;;;6.73;;
1563;SDS011;775;51.958;7.976;2024-03-17T08:46:01;19.77;;;7.40;;
1563;SDS011;775;51.958;7.976;2024-03-17T08:48:50;23.60;;;7.50;;
1563;SDS011;775;51.958;7.976;2024-03-17T08:51:39;20.80;;;7.20;;
1563;SDS011;775;51.958;7.976;2024-03-17T08:54:26;21.00;;;7.60;;
1563;SDS011;775;51.958;7.976;2024-03-17T08:57:14;19.20;;;6.13;;
1563;SDS011;775;51.958;7.976;2024-03-17T09:00:01;20.40;;;6.83;;
1563;SDS011;775;51.958;7.976;2024-03-17T09:02:49;20.67;;;7.43;;
1563;SDS011;775;51.958;7.976;2024-03-17T09:05:36;20.80;;;6.80;;
1563;SDS011;775;51.958;7.976;2024-03-17T09:08:26;21.73;;;7.47;;
1563;SDS011;775;51.958;7.976;2024-03-17T09:11:13;24.50;;;7.93;;
1563;SDS011;775;51.958;7.976;2024-03-17T09:14:01;21.80;;;8.83;;
1563;SDS011;775;51.958;7.976;2024-03-17T09:16:48;21.30;;;6.80;;
1563;SDS011;775;51.958;7.976;2024-03-17T09:19:36;24.73;;;7.70;;
1563;SDS011;775;51.958;7.976;2024-03-17T09:22:23;20.37;;;6.07;;
1563;SDS011;775;51.958;7.976;2024-03-17T09:25:12;20.83;;;7.07;;
1563;SDS011;775;51.958;7.976;2024-03-17T09:28:00;20.90;;;6.93;;
1563;SDS011;775;51.958;7.976;2024-03-17T09:30:47;20.90;;;6.80;;
1563;SDS011;775;51.958;7.976;2024-03-17T09:33:35;22.80;;;7.43;;
1563;SDS011;775;51.958;7.976;2024-03-17T09:36:23;20.53;;;6.70;;
1563;SDS011;775;51.958;7.976;2024-03-17T09:39:11;21.83;;;5.73;;
1563;SDS011;775;51.958;7.976;2024-03-17T09:42:01;19.63;;;5.80;;
1563;SDS011;775;51.958;7.976;2024-03-17T09:44:49;19.70;;;6.27;;
1563;SDS011;775;51.958;7.976;2024-03-17T09:47:37;21.27;;;6.80;;
1563;SDS011;775;51.958;7.976;2024-03-17T09:50:26;19.40;;;6.10;;
1563;SDS011;775;51.958;7.976;2024-03-17T09:53:15;20.23;;;6.43;;
1563;SDS011;775;51.958;7.976;2024-03-17T09:56:06;22.37;;;5.60;;
1563;SDS011;775;51.958;7.976;2024-03-17T09:58:56;19.37;;;6.47;;
1563;SDS011;775;51.958;7.976;2024-03-17T10:01:44;19.43;;;5.57;;
1563;SDS011;775;51.958;7.976;2024-03-17T10:04:34;20.57;;;6.93;;
1563;SDS011;775;51.958;7.976;2024-03-17T10:07:29;19.57;;;5.37;;
1563;SDS011;775;51.958;7.976;2024-03-17T10:10:24;21.13;;;6.97;;
1563;SDS011;775;51.958;7.976;2024-03-17T10:13:12;18.13;;;5.63;;
1563;SDS011;775;51.958;7.976;2024-03-17T10:16:01;19.27;;;5.43;;
1563;SDS011;775;51.958;7.976;2024-03-17T10:18:49;19.90;;;5.73;;
1563;SDS011;775;51.958;7.976;2024-03-17T10:21:37;18.87;;;6.10;;
1563;SDS011;775;51.958;7.976;2024-03-17T10:24:26;19.87;;;6.93;;
1563;SDS011;775;51.958;7.976;2024-03-17T10:27:14;22.80;;;8.03;;
1563;SDS011;775;51.958;7.976;2024-03-17T10:30:01;22.70;;;7.10;;
1563;SDS011;775;51.958;7.976;2024-03-17T10:32:55;20.40;;;6.20;;
1563;SDS011;775;51.958;7.976;2024-03-17T10:35:43;19.23;;;6.20;;
1563;SDS011;775;51.958;7.976;2024-03-17T10:38:31;25.40;;;6.20;;
1563;SDS011;775;51.958;7.976;2024-03-17T10:41:20;19.57;;;5.87;;
1563;SDS011;775;51.958;7.976;2024-03-17T10:44:08;18.90;;;5.50;;
1563;SDS011;775;51.958;7.976;2024-03-17T10:46:56;21.70;;;6.77;;
1563;SDS011;775;51.958;7.976;2024-03-17T10:49:45;17.50;;;5.13;;
1563;SDS011;775;51.958;7.976;2024-03-17T10:52:33;18.30;;;5.27;;
1563;SDS011;775;51.958;7.976;2024-03-17T10:55:21;21.40;;;5.70;;
1563;SDS011;775;51.958;7.976;2024-03-17T10:58:13;18.23;;;5.40;;
1563;SDS011;775;51.958;7.976;2024-03-17T11:01:03;20.17;;;5.37;;
1563;SDS011;775;51.958;7.976;2024-03-17T11:03:50;18.40;;;5.50;;
1563;SDS011;775;51.958;7.976;2024-03-17T11:06:40;18.30;;;5.03;;
1563;SDS011;775;51.958;7.976;2024-03-17T11:09:27;19.27;;;5.93;;
1563;SDS011;775;51.958;7.976;2024-03-17T11:15:36;18.10;;;4.90;;
1563;SDS011;775;51.958;7.976;2024-03-17T11:18:37;18.00;;;5.10;;
1563;SDS011;775;51.958;7.976;2024-03-17T11:21:25;18.40;;;5.77;;
1563;SDS011;775;51.958;7.976;2024-03-17T11:24:21;18.20;;;5.37;;
1563;SDS011;775;51.958;7.976;2024-03-17T11:36:36;24.97;;;6.13;;
1563;SDS011;775;51.958;7.976;2024-03-17T11:42:30;20.70;;;6.30;;
1563;SDS011;775;51.958;7.976;2024-03-17T11:45:17;18.63;;;5.30;;
1563;SDS011;775;51.958;7.976;2024-03-17T11:48:06;22.43;;;4.90;;
1563;SDS011;775;51.958;7.976;2024-03-17T11:50:59;24.97;;;5.63;;
1563;SDS011;775;51.958;7.976;2024-03-17T11:53:54;22.57;;;6.13;;
1563;SDS011;775;51.958;7.976;2024-03-17T11:56:43;19.50;;;6.20;;
1563;SDS011;775;51.958;7.976;2024-03-17T11:59:33;19.87;;;6.73;;
1563;SDS011;775;51.958;7.976;2024-03-17T12:02:21;19.97;;;6.40;;
1563;SDS011;775;51.958;7.976;2024-03-17T12:05:08;19.73;;;6.10;;
1563;SDS011;775;51.958;7.976;2024-03-17T12:07:56;21.33;;;7.07;;
1563;SDS011;775;51.958;7.976;2024-03-17T12:10:46;19.47;;;6.23;;
1563;SDS011;775;51.958;7.976;2024-03-17T12:13:34;17.97;;;5.60;;
1563;SDS011;775;51.958;7.976;2024-03-17T12:16:22;21.90;;;6.87;;
1563;SDS011;775;51.958;7.976;2024-03-17T12:19:09;18.27;;;5.50;;
1563;SDS011;775;51.958;7.976;2024-03-17T12:21:58;19.80;;;7.07;;
1563;SDS011;775;51.958;7.976;2024-03-17T12:24:47;18.60;;;5.43;;
1563;SDS011;775;51.958;7.976;2024-03-17T12:27:35;19.93;;;5.60;;
1563;SDS011;775;51.958;7.976;2024-03-17T12:30:22;20.37;;;6.57;;
1563;SDS011;775;51.958;7.976;2024-03-17T12:33:11;19.47;;;6.30;;
1563;SDS011;775;51.958;7.976;2024-03-17T12:35:58;20.00;;;6.00;;
1563;SDS011;775;51.958;7.976;2024-03-17T12:38:49;19.10;;;6.47;;
1563;SDS011;775;51.958;7.976;2024-03-17T12:41:35;21.70;;;7.67;;
1563;SDS011;775;51.958;7.976;2024-03-17T12:44:23;21.83;;;6.03;;
1563;SDS011;775;51.958;7.976;2024-03-17T12:47:14;18.93;;;6.33;;
1563;SDS011;775;51.958;7.976;2024-03-17T12:50:02;18.20;;;5.33;;
1563;SDS011;775;51.958;7.976;2024-03-17T12:52:52;20.40;;;6.60;;
1563;SDS011;775;51.958;7.976;2024-03-17T12:55:38;18.33;;;5.37;;
1563;SDS011;775;51.958;7.976;2024-03-17T12:58:43;19.60;;;5.60;;
1563;SDS011;775;51.958;7.976;2024-03-17T13:01:48;18.53;;;4.80;;
1563;SDS011;775;51.958;7.976;2024-03-17T13:04:36;18.33;;;5.77;;
1563;SDS011;775;51.958;7.976;2024-03-17T13:07:25;21.23;;;5.70;;
1563;SDS011;775;51.958;7.976;2024-03-17T13:10:14;19.50;;;5.47;;
1563;SDS011;775;51.958;7.976;2024-03-17T13:13:02;18.17;;;5.67;;
1563;SDS011;775;51.958;7.976;2024-03-17T13:15:50;19.63;;;5.60;;
1563;SDS011;775;51.958;7.976;2024-03-17T13:18:37;17.00;;;5.13;;
1563;SDS011;775;51.958;7.976;2024-03-17T13:21:25;18.47;;;5.23;;
1563;SDS011;775;51.958;7.976;2024-03-17T13:24:14;17.33;;;5.00;;
1563;SDS011;775;51.958;7.976;2024-03-17T13:27:01;19.60;;;5.33;;
1563;SDS011;775;51.958;7.976;2024-03-17T13:29:51;20.33;;;6.30;;
1563;SDS011;775;51.958;7.976;2024-03-17T13:32:39;19.63;;;5.10;;
1563;SDS011;775;51.958;7.976;2024-03-17T13:35:30;18.20;;;4.70;;
1563;SDS011;775;51.958;7.976;2024-03-17T13:38:20;19.10;;;6.00;;
1563;SDS011;775;51.958;7.976;2024-03-17T13:41:09;17.50;;;4.40;;
1563;SDS011;775;51.958;7.976;2024-03-17T13:43:56;18.73;;;5.23;;
1563;SDS011;775;51.958;7.976;2024-03-17T13:46:44;17.40;;;5.30;;
1563;SDS011;775;51.958;7.976;2024-03-17T13:49:33;18.10;;;5.27;;
1563;SDS011;775;51.958;7.976;2024-03-17T13:52:21;18.40;;;5.60;;
1563;SDS011;775;51.958;7.976;2024-03-17T13:55:08;23.73;;;5.63;;
1563;SDS011;775;51.958;7.976;2024-03-17T13:58:00;18.10;;;5.20;;
1563;SDS011;775;51.958;7.976;2024-03-17T14:00:49;17.10;;;4.37;;
1563;SDS011;775;51.958;7.976;2024-03-17T14:03:38;19.60;;;5.47;;
1563;SDS011;775;51.958;7.976;2024-03-17T14:06:25;19.37;;;5.40;;
1563;SDS011;775;51.958;7.976;2024-03-17T14:09:14;18.73;;;5.47;;
1563;SDS011;775;51.958;7.976;2024-03-17T14:12:03;19.20;;;5.30;;
1563;SDS011;775;51.958;7.976;2024-03-17T14:14:52;20.00;;;5.70;;
1563;SDS011;775;51.958;7.976;2024-03-17T14:17:40;18.30;;;5.77;;
1563;SDS011;775;51.958;7.976;2024-03-17T14:20:27;18.10;;;5.60;;
1563;SDS011;775;51.958;7.976;2024-03-17T14:23:15;17.37;;;5.10;;
1563;SDS011;775;51.958;7.976;2024-03-17T14:26:02;17.07;;;4.60;;
1563;SDS011;775;51.958;7.976;2024-03-17T14:28:50;17.87;;;5.63;;
1563;SDS011;775;51.958;7.976;2024-03-17T14:31:41;18.17;;;5.33;;
1563;SDS011;775;51.958;7.976;2024-03-17T14:34:29;18.80;;;5.97;;
1563;SDS011;775;51.958;7.976;2024-03-17T14:37:20;19.40;;;5.57;;
1563;SDS011;775;51.958;7.976;2024-03-17T14:40:08;18.40;;;5.70;;
1563;SDS011;775;51.958;7.976;2024-03-17T14:43:02;18.50;;;5.20;;
1563;SDS011;775;51.958;7.976;2024-03-17T14:45:50;18.53;;;5.07;;
1563;SDS011;775;51.958;7.976;2024-03-17T14:48:39;17.67;;;4.83;;
1563;SDS011;775;51.958;7.976;2024-03-17T14:51:28;18.27;;;5.57;;
1563;SDS011;775;51.958;7.976;2024-03-17T14:54:15;18.10;;;5.00;;
1563;SDS011;775;51.958;7.976;2024-03-17T14:57:03;17.63;;;5.17;;
1563;SDS011;775;51.958;7.976;2024-03-17T14:59:51;20.47;;;4.97;;
1563;SDS011;775;51.958;7.976;2024-03-17T15:02:38;17.70;;;5.00;;
1563;SDS011;775;51.958;7.976;2024-03-17T15:05:27;21.10;;;5.17;;
1563;SDS011;775;51.958;7.976;2024-03-17T15:08:15;25.43;;;5.87;;
1563;SDS011;775;51.958;7.976;2024-03-17T15:11:05;19.80;;;5.30;;
1563;SDS011;775;51.958;7.976;2024-03-17T15:13:54;19.23;;;5.47;;
1563;SDS011;775;51.958;7.976;2024-03-17T15:16:42;18.50;;;4.90;;
1563;SDS011;775;51.958;7.976;2024-03-17T15:19:29;19.60;;;4.80;;
1563;SDS011;775;51.958;7.976;2024-03-17T15:22:19;18.97;;;4.30;;
1563;SDS011;775;51.958;7.976;2024-03-17T15:25:07;19.60;;;4.97;;
1563;SDS011;775;51.958;7.976;2024-03-17T15:27:55;19.13;;;4.47;;
1563;SDS011;775;51.958;7.976;2024-03-17T15:30:45;23.73;;;4.87;;
1563;SDS011;775;51.958;7.976;2024-03-17T15:33:32;18.33;;;5.10;;
1563;SDS011;775;51.958;7.976;2024-03-17T15:36:22;19.90;;;4.67;;
1563;SDS011;775;51.958;7.976;2024-03-17T15:39:11;16.67;;;4.00;;
1563;SDS011;775;51.958;7.976;2024-03-17T15:41:59;20.13;;;4.17;;
1563;SDS011;775;51.958;7.976;2024-03-17T15:44:47;18.77;;;6.10;;
1563;SDS011;775;51.958;7.976;2024-03-17T15:47:35;16.63;;;4.87;;
1563;SDS011;775;51.958;7.976;2024-03-17T15:50:23;16.67;;;4.30;;
1563;SDS011;775;51.958;7.976;2024-03-17T15:53:10;16.93;;;4.43;;
1563;SDS011;775;51.958;7.976;2024-03-17T15:56:00;19.70;;;4.80;;
1563;SDS011;775;51.958;7.976;2024-03-17T15:58:48;19.97;;;5.20;;
1563;SDS011;775;51.958;7.976;2024-03-17T16:01:35;18.33;;;5.07;;
1563;SDS011;775;51.958;7.976;2024-03-17T16:04:23;18.40;;;5.10;;
1563;SDS011;775;51.958;7.976;2024-03-17T16:07:11;18.40;;;4.30;;
1563;SDS011;775;51.958;7.976;2024-03-17T16:09:59;18.53;;;5.50;;
1563;SDS011;775;51.958;7.976;2024-03-17T16:12:48;18.57;;;5.30;;
1563;SDS011;775;51.958;7.976;2024-03-17T16:15:36;19.00;;;5.70;;
1563;SDS011;775;51.958;7.976;2024-03-17T16:18:25;20.00;;;6.50;;
1563;SDS011;775;51.958;7.976;2024-03-17T16:21:14;18.50;;;4.83;;
1563;SDS011;775;51.958;7.976;2024-03-17T16:24:03;19.23;;;6.13;;
1563;SDS011;775;51.958;7.976;2024-03-17T16:26:53;19.87;;;6.40;;
1563;SDS011;775;51.958;7.976;2024-03-17T16:29:42;21.60;;;6.33;;
1563;SDS011;775;51.958;7.976;2024-03-17T16:32:30;19.10;;;6.10;;
1563;SDS011;775;51.958;7.976;2024-03-17T16:35:18;21.30;;;7.00;;
1563;SDS011;775;51.958;7.976;2024-03-17T16:38:07;17.80;;;5.37;;
1563;SDS011;775;51.958;7.976;2024-03-17T16:40:54;19.77;;;6.43;;
1563;SDS011;775;51.958;7.976;2024-03-17T16:43:46;19.57;;;6.90;;
1563;SDS011;775;51.958;7.976;2024-03-17T16:46:45;21.50;;;6.33;;
1563;SDS011;775;51.958;7.976;2024-03-17T16:49:40;20.90;;;7.43;;
1563;SDS011;775;51.958;7.976;2024-03-17T16:52:27;20.50;;;6.83;;
1563;SDS011;775;51.958;7.976;2024-03-17T16:55:15;18.97;;;6.23;;
1563;SDS011;775;51.958;7.976;2024-03-17T16:58:02;22.70;;;7.30;;
1563;SDS011;775;51.958;7.976;2024-03-17T17:00:50;21.07;;;6.50;;
1563;SDS011;775;51.958;7.976;2024-03-17T17:03:40;20.40;;;6.10;;
1563;SDS011;775;51.958;7.976;2024-03-17T17:06:28;20.40;;;6.67;;
1563;SDS011;775;51.958;7.976;2024-03-17T17:09:15;18.60;;;6.53;;
1563;SDS011;775;51.958;7.976;2024-03-17T17:12:03;20.67;;;6.87;;
1563;SDS011;775;51.958;7.976;2024-03-17T17:14:51;20.03;;;6.17;;
1563;SDS011;775;51.958;7.976;2024-03-17T17:17:38;19.20;;;5.97;;
1563;SDS011;775;51.958;7.976;2024-03-17T17:20:27;21.30;;;7.60;;
1563;SDS011;775;51.958;7.976;2024-03-17T17:23:19;21.20;;;7.30;;
1563;SDS011;775;51.958;7.976;2024-03-17T17:26:07;21.57;;;8.47;;
1563;SDS011;775;51.958;7.976;2024-03-17T17:28:55;20.33;;;5.90;;
1563;SDS011;775;51.958;7.976;2024-03-17T17:31:43;20.53;;;7.23;;
1563;SDS011;775;51.958;7.976;2024-03-17T17:34:30;20.00;;;6.93;;
1563;SDS011;775;51.958;7.976;2024-03-17T17:37:19;22.80;;;8.53;;
1563;SDS011;775;51.958;7.976;2024-03-17T17:40:07;21.87;;;7.87;;
1563;SDS011;775;51.958;7.976;2024-03-17T17:42:55;21.77;;;7.30;;